createdAt,value
2017-07-17T00:00:00.403Z,9.00
2017-07-17T00:02:28.655Z,8.87
2017-07-17T00:04:56.919Z,11.13
2017-07-17T00:07:25.229Z,9.93
2017-07-17T00:09:53.471Z,9.90
2017-07-17T00:12:21.956Z,10.00
2017-07-17T00:14:50.232Z,10.60
2017-07-17T00:17:18.491Z,12.63
2017-07-17T00:19:46.745Z,11.33
2017-07-17T00:22:15.142Z,9.50
2017-07-17T00:24:43.621Z,11.93
2017-07-17T00:27:11.883Z,11.17
2017-07-17T00:29:40.230Z,11.10
2017-07-17T00:32:08.517Z,11.87
2017-07-17T00:34:36.884Z,10.70
2017-07-17T00:37:05.555Z,9.57
2017-07-17T00:39:34.021Z,12.93
2017-07-17T00:42:02.256Z,10.13
2017-07-17T00:44:30.764Z,12.00
2017-07-17T00:46:59.019Z,10.83
2017-07-17T00:49:28.948Z,11.57
2017-07-17T00:51:58.109Z,12.27
2017-07-17T00:54:26.364Z,10.27
2017-07-17T00:56:54.609Z,12.97
2017-07-17T00:59:22.898Z,12.53
2017-07-17T01:01:51.687Z,12.07
2017-07-17T01:04:19.945Z,12.53
2017-07-17T01:06:48.241Z,13.40
2017-07-17T01:09:16.489Z,14.30
2017-07-17T01:11:44.746Z,12.57
2017-07-17T01:14:13.099Z,12.60
2017-07-17T01:16:41.329Z,13.80
2017-07-17T01:19:09.580Z,13.60
2017-07-17T01:21:37.876Z,10.00
2017-07-17T01:24:06.124Z,9.60
2017-07-17T01:26:34.384Z,11.13
2017-07-17T01:29:02.674Z,11.40
2017-07-17T01:31:30.913Z,13.13
2017-07-17T01:33:59.168Z,9.83
2017-07-17T01:36:27.436Z,13.07
2017-07-17T01:38:55.696Z,10.17
2017-07-17T01:41:23.959Z,9.67
2017-07-17T01:43:52.215Z,9.90
2017-07-17T01:46:20.864Z,13.20
2017-07-17T01:48:49.117Z,11.80
2017-07-17T01:51:17.386Z,10.50
2017-07-17T01:53:45.641Z,11.80
2017-07-17T01:56:13.884Z,15.13
2017-07-17T01:58:42.586Z,10.80
2017-07-17T02:01:11.239Z,9.80
2017-07-17T02:03:41.058Z,11.50
2017-07-17T02:06:09.359Z,12.60
2017-07-17T02:08:37.601Z,12.20
2017-07-17T02:11:05.861Z,12.13
2017-07-17T02:13:34.169Z,11.30
2017-07-17T02:16:02.424Z,10.47
2017-07-17T02:18:30.694Z,10.50
2017-07-17T02:20:58.995Z,10.27
2017-07-17T02:23:27.255Z,10.23
2017-07-17T02:25:55.517Z,10.27
2017-07-17T02:28:23.819Z,8.93
2017-07-17T02:30:52.061Z,11.00
2017-07-17T02:33:20.532Z,10.73
2017-07-17T02:35:48.829Z,11.70
2017-07-17T02:38:17.080Z,9.97
2017-07-17T02:40:46.263Z,10.17
2017-07-17T02:43:14.556Z,9.80
2017-07-17T02:45:42.810Z,11.80
2017-07-17T02:48:11.063Z,9.50
2017-07-17T02:50:39.357Z,8.73
2017-07-17T02:53:07.598Z,7.53
2017-07-17T02:55:35.857Z,10.67
2017-07-17T02:58:04.151Z,8.13
2017-07-17T03:00:32.420Z,8.90
2017-07-17T03:03:00.893Z,7.03
2017-07-17T03:05:29.166Z,5.97
2017-07-17T03:07:57.415Z,8.20
2017-07-17T03:10:25.669Z,7.60
2017-07-17T03:12:53.947Z,6.60
2017-07-17T03:15:22.188Z,7.33
2017-07-17T03:17:50.654Z,8.20
2017-07-17T03:20:19.036Z,7.80
2017-07-17T03:22:47.286Z,6.37
2017-07-17T03:25:15.519Z,6.60
2017-07-17T03:27:44.193Z,6.77
2017-07-17T03:30:12.450Z,7.47
2017-07-17T03:32:40.672Z,7.03
2017-07-17T03:35:08.933Z,5.90
2017-07-17T03:37:37.574Z,7.30
2017-07-17T03:40:05.816Z,6.20
2017-07-17T03:42:34.106Z,17.50
2017-07-17T03:45:02.351Z,8.50
2017-07-17T03:47:30.625Z,7.50
2017-07-17T03:49:59.331Z,7.80
2017-07-17T03:52:27.602Z,6.50
2017-07-17T03:54:55.860Z,6.30
2017-07-17T03:57:25.370Z,7.97
2017-07-17T03:59:53.622Z,7.73
2017-07-17T04:02:21.867Z,7.10
2017-07-17T04:04:50.161Z,7.00
2017-07-17T04:07:18.397Z,6.83
2017-07-17T04:09:46.636Z,5.80
2017-07-17T04:12:14.915Z,6.70
2017-07-17T04:14:43.548Z,5.90
2017-07-17T04:17:11.792Z,5.60
2017-07-17T04:19:40.145Z,5.90
2017-07-17T04:22:08.827Z,5.83
2017-07-17T04:24:37.062Z,5.43
2017-07-17T04:27:05.329Z,6.27
2017-07-17T04:29:33.563Z,6.27
2017-07-17T04:32:01.832Z,5.30
2017-07-17T04:34:30.133Z,5.53
2017-07-17T04:36:58.768Z,4.87
2017-07-17T04:39:27.896Z,4.53
2017-07-17T04:41:56.190Z,5.13
2017-07-17T04:44:24.453Z,6.20
2017-07-17T04:46:52.705Z,5.57
2017-07-17T04:49:21.892Z,5.80
2017-07-17T04:51:50.269Z,5.13
2017-07-17T04:54:18.512Z,4.90
2017-07-17T04:56:46.799Z,6.07
2017-07-17T04:59:15.050Z,5.97
2017-07-17T05:01:43.358Z,5.20
2017-07-17T05:04:11.671Z,5.10
2017-07-17T05:06:39.950Z,5.43
2017-07-17T05:09:08.209Z,5.03
2017-07-17T05:11:36.477Z,5.87
2017-07-17T05:14:04.731Z,5.23
2017-07-17T05:16:32.968Z,5.70
2017-07-17T05:19:01.648Z,5.53
2017-07-17T05:21:30.307Z,5.10
2017-07-17T05:23:58.790Z,5.97
2017-07-17T05:26:27.045Z,5.07
2017-07-17T05:28:55.434Z,5.00
2017-07-17T05:31:23.679Z,5.27
2017-07-17T05:33:52.368Z,5.80
2017-07-17T05:36:20.625Z,6.57
2017-07-17T05:38:48.875Z,5.83
2017-07-17T05:41:17.373Z,5.70
2017-07-17T05:43:45.616Z,5.90
2017-07-17T05:46:13.884Z,5.10
2017-07-17T05:48:42.158Z,5.60
2017-07-17T05:51:10.403Z,5.17
2017-07-17T05:53:38.648Z,4.97
2017-07-17T05:56:06.932Z,4.90
2017-07-17T05:58:35.171Z,5.63
2017-07-17T06:01:03.534Z,5.20
2017-07-17T06:03:31.799Z,5.10
2017-07-17T06:06:00.045Z,5.17
2017-07-17T06:08:28.306Z,6.30
2017-07-17T06:10:57.092Z,5.50
2017-07-17T06:13:25.337Z,5.40
2017-07-17T06:15:53.990Z,6.10
2017-07-17T06:18:22.281Z,5.70
2017-07-17T06:20:51.366Z,5.13
2017-07-17T06:23:19.837Z,5.53
2017-07-17T06:25:48.710Z,5.27
2017-07-17T06:28:16.953Z,5.37
2017-07-17T06:30:45.237Z,5.63
2017-07-17T06:33:13.934Z,4.60
2017-07-17T06:35:42.184Z,4.93
2017-07-17T06:38:10.834Z,4.20
2017-07-17T06:40:39.117Z,3.70
2017-07-17T06:43:07.591Z,3.73
2017-07-17T06:45:35.834Z,4.20
2017-07-17T06:48:04.144Z,3.93
2017-07-17T06:50:32.385Z,3.43
2017-07-17T06:53:01.328Z,2.73
2017-07-17T06:55:29.812Z,3.27
2017-07-17T06:57:59.041Z,3.43
2017-07-17T07:00:27.288Z,4.00
2017-07-17T07:02:56.400Z,3.43
2017-07-17T07:05:24.707Z,3.30
2017-07-17T07:07:52.956Z,2.63
2017-07-17T07:10:21.631Z,3.60
2017-07-17T07:12:49.865Z,3.70
2017-07-17T07:15:18.102Z,3.47
2017-07-17T07:17:46.624Z,3.30
2017-07-17T07:20:14.877Z,3.33
2017-07-17T07:22:43.124Z,2.60
2017-07-17T07:25:11.426Z,3.80
2017-07-17T07:27:39.656Z,2.57
2017-07-17T07:30:07.889Z,2.53
2017-07-17T07:32:36.197Z,2.60
2017-07-17T07:35:04.432Z,2.60
2017-07-17T07:37:32.691Z,2.70
2017-07-17T07:40:00.985Z,2.93
2017-07-17T07:42:29.265Z,2.90
2017-07-17T07:44:57.507Z,2.50
2017-07-17T07:47:25.858Z,3.20
2017-07-17T07:49:54.119Z,3.33
2017-07-17T07:52:22.397Z,2.57
2017-07-17T07:54:50.798Z,2.40
2017-07-17T07:57:19.053Z,3.50
2017-07-17T07:59:47.533Z,3.00
2017-07-17T08:02:15.849Z,2.60
2017-07-17T08:04:44.493Z,3.27
2017-07-17T08:07:12.741Z,2.10
2017-07-17T08:09:41.680Z,2.80
2017-07-17T08:12:09.927Z,2.50
2017-07-17T08:14:38.179Z,2.57
2017-07-17T08:17:06.532Z,3.07
2017-07-17T08:19:34.779Z,2.60
2017-07-17T08:22:03.034Z,2.47
2017-07-17T08:24:31.340Z,2.47
2017-07-17T08:26:59.821Z,3.13
2017-07-17T08:29:28.301Z,2.60
2017-07-17T08:31:56.582Z,2.47
2017-07-17T08:34:24.821Z,2.70
2017-07-17T08:36:53.061Z,2.47
2017-07-17T08:39:21.372Z,2.30
2017-07-17T08:41:49.649Z,2.03
2017-07-17T08:44:17.900Z,2.20
2017-07-17T08:46:46.220Z,2.00
2017-07-17T08:49:14.513Z,2.30
2017-07-17T08:51:44.304Z,2.20
2017-07-17T08:54:12.625Z,2.37
2017-07-17T08:56:40.891Z,1.97
2017-07-17T08:59:09.544Z,1.97
2017-07-17T09:01:43.007Z,2.53
2017-07-17T09:04:12.237Z,1.93
2017-07-17T09:06:40.542Z,2.40
2017-07-17T09:09:09.129Z,4.17
2017-07-17T09:11:37.363Z,2.07
2017-07-17T09:14:05.613Z,1.90
2017-07-17T09:16:34.906Z,2.20
2017-07-17T09:19:03.136Z,2.20
2017-07-17T09:21:31.393Z,2.60
2017-07-17T09:23:59.654Z,2.27
2017-07-17T09:26:27.891Z,1.90
2017-07-17T09:28:56.193Z,2.10
2017-07-17T09:31:24.546Z,2.70
2017-07-17T09:33:53.522Z,2.30
2017-07-17T09:36:22.185Z,2.10
2017-07-17T09:38:50.695Z,2.30
2017-07-17T09:41:19.261Z,2.00
2017-07-17T09:43:47.497Z,2.60
2017-07-17T09:46:15.793Z,2.13
2017-07-17T09:48:44.191Z,2.27
2017-07-17T09:51:13.173Z,1.90
2017-07-17T09:53:41.448Z,1.97
2017-07-17T09:56:09.695Z,2.40
2017-07-17T09:58:37.933Z,2.30
2017-07-17T10:01:06.203Z,2.03
2017-07-17T10:03:34.434Z,2.40
2017-07-17T10:06:02.791Z,1.97
2017-07-17T10:08:31.073Z,2.33
2017-07-17T10:10:59.597Z,2.30
2017-07-17T10:13:27.893Z,2.10
2017-07-17T10:15:56.756Z,2.20
2017-07-17T10:18:24.978Z,2.07
2017-07-17T10:20:53.246Z,2.10
2017-07-17T10:23:21.908Z,2.03
2017-07-17T10:25:50.140Z,1.93
2017-07-17T10:28:18.377Z,1.63
2017-07-17T10:30:47.047Z,2.37
2017-07-17T10:33:15.277Z,2.40
2017-07-17T10:35:43.518Z,2.10
2017-07-17T10:38:11.957Z,1.77
2017-07-17T10:40:40.214Z,2.13
2017-07-17T10:43:08.924Z,2.20
2017-07-17T10:45:37.217Z,2.10
2017-07-17T10:48:05.857Z,2.20
2017-07-17T10:50:34.099Z,2.33
2017-07-17T10:53:02.754Z,2.27
2017-07-17T10:55:31.233Z,2.20
2017-07-17T10:57:59.473Z,2.10
2017-07-17T11:00:27.767Z,2.30
2017-07-17T11:02:55.997Z,1.63
2017-07-17T11:05:24.276Z,2.10
2017-07-17T11:07:52.563Z,2.53
2017-07-17T11:10:20.842Z,2.33
2017-07-17T11:12:49.108Z,2.00
2017-07-17T11:15:17.368Z,1.80
2017-07-17T11:17:45.609Z,1.80
2017-07-17T11:20:13.847Z,2.30
2017-07-17T11:22:42.113Z,2.13
2017-07-17T11:25:10.376Z,2.80
2017-07-17T11:27:38.997Z,2.50
2017-07-17T11:30:07.255Z,2.20
2017-07-17T11:32:35.488Z,1.90
2017-07-17T11:35:03.721Z,1.90
2017-07-17T11:37:32.116Z,1.90
2017-07-17T11:40:00.332Z,1.90
2017-07-17T11:42:28.883Z,1.90
2017-07-17T11:44:57.148Z,1.73
2017-07-17T12:00:00.807Z,1.90
2017-07-17T12:02:29.067Z,1.70
2017-07-17T12:07:24.744Z,2.20
2017-07-17T12:09:52.994Z,2.07
2017-07-17T12:12:21.395Z,1.80
2017-07-17T12:14:49.631Z,1.60
2017-07-17T12:17:17.927Z,1.80
2017-07-17T12:19:46.174Z,2.30
2017-07-17T12:22:14.658Z,1.97
2017-07-17T12:24:42.935Z,2.23
2017-07-17T12:27:11.255Z,1.60
2017-07-17T12:29:39.533Z,1.93
2017-07-17T12:32:07.814Z,2.23
2017-07-17T12:34:36.084Z,1.93
2017-07-17T12:37:04.310Z,1.30
2017-07-17T12:39:32.749Z,1.70
2017-07-17T12:42:01.156Z,1.63
2017-07-17T12:44:29.838Z,1.40
2017-07-17T12:46:58.465Z,2.10
2017-07-17T12:49:26.701Z,1.77
2017-07-17T12:51:55.328Z,2.03
2017-07-17T12:54:23.605Z,1.47
2017-07-17T12:56:51.900Z,1.70
2017-07-17T12:59:20.176Z,1.80
2017-07-17T13:01:48.441Z,1.90
2017-07-17T13:04:16.695Z,2.07
2017-07-17T13:06:44.929Z,1.93
2017-07-17T13:09:13.264Z,1.97
2017-07-17T13:11:41.510Z,1.50
2017-07-17T13:14:09.737Z,1.60
2017-07-17T13:16:38.003Z,1.40
2017-07-17T13:19:06.251Z,1.87
2017-07-17T13:21:34.496Z,1.90
2017-07-17T13:24:02.784Z,2.70
2017-07-17T13:26:31.020Z,2.60
2017-07-17T13:28:59.262Z,2.00
2017-07-17T13:31:27.545Z,2.13
2017-07-17T13:33:55.776Z,1.60
2017-07-17T13:36:24.609Z,2.13
2017-07-17T13:38:52.878Z,1.90
2017-07-17T13:41:21.109Z,1.60
2017-07-17T13:43:49.736Z,1.87
2017-07-17T13:46:18.020Z,2.17
2017-07-17T13:48:46.239Z,1.90
2017-07-17T13:51:15.659Z,2.40
2017-07-17T13:53:43.932Z,2.30
2017-07-17T13:56:12.556Z,2.57
2017-07-17T13:58:40.792Z,2.07
2017-07-17T14:01:09.094Z,2.00
2017-07-17T14:03:37.337Z,1.80
2017-07-17T14:06:05.570Z,1.60
2017-07-17T14:08:33.961Z,1.60
2017-07-17T14:11:02.232Z,1.60
2017-07-17T14:13:30.473Z,1.60
2017-07-17T14:15:58.759Z,1.87
2017-07-17T14:18:27.086Z,2.00
2017-07-17T14:20:55.757Z,2.27
2017-07-17T14:23:24.440Z,2.17
2017-07-17T14:25:52.673Z,1.90
2017-07-17T14:28:20.985Z,1.80
2017-07-17T14:30:49.261Z,2.50
2017-07-17T14:33:17.547Z,1.93
2017-07-17T14:35:45.778Z,2.33
2017-07-17T14:38:14.130Z,2.10
2017-07-17T14:40:42.377Z,2.40
2017-07-17T14:43:10.611Z,2.27
2017-07-17T14:45:38.867Z,2.40
2017-07-17T14:48:07.145Z,2.13
2017-07-17T14:50:35.396Z,2.00
2017-07-17T14:53:03.677Z,1.90
2017-07-17T14:55:31.928Z,2.77
2017-07-17T14:58:00.413Z,1.90
2017-07-17T15:00:28.695Z,2.23
2017-07-17T15:02:56.936Z,1.83
2017-07-17T15:05:25.239Z,2.20
2017-07-17T15:07:53.518Z,2.00
2017-07-17T15:10:21.765Z,2.10
2017-07-17T15:12:49.995Z,2.40
2017-07-17T15:15:18.280Z,2.27
2017-07-17T15:17:46.525Z,2.10
2017-07-17T15:20:14.764Z,2.53
2017-07-17T15:22:43.070Z,2.07
2017-07-17T15:25:11.313Z,2.10
2017-07-17T15:27:39.571Z,2.10
2017-07-17T15:30:07.907Z,2.20
2017-07-17T15:32:36.381Z,2.13
2017-07-17T15:35:04.624Z,2.30
2017-07-17T15:37:32.919Z,2.50
2017-07-17T15:40:01.203Z,2.10
2017-07-17T15:42:29.432Z,2.40
2017-07-17T15:44:57.703Z,2.43
2017-07-17T15:47:25.958Z,1.80
2017-07-17T15:49:54.215Z,2.67
2017-07-17T15:52:22.469Z,2.20
2017-07-17T15:54:50.703Z,2.13
2017-07-17T15:57:18.956Z,2.47
2017-07-17T15:59:47.266Z,2.43
2017-07-17T16:02:15.503Z,2.40
2017-07-17T16:04:44.134Z,2.10
2017-07-17T16:07:12.393Z,2.67
2017-07-17T16:09:41.028Z,2.63
2017-07-17T16:12:09.549Z,3.10
2017-07-17T16:14:37.906Z,2.70
2017-07-17T16:17:07.018Z,2.50
2017-07-17T16:19:35.265Z,2.50
2017-07-17T16:22:03.599Z,2.93
2017-07-17T16:24:31.848Z,3.60
2017-07-17T16:27:00.390Z,2.67
2017-07-17T16:29:28.671Z,3.10
2017-07-17T16:31:56.987Z,3.63
2017-07-17T16:34:25.226Z,2.70
2017-07-17T16:36:53.504Z,3.03
2017-07-17T16:39:21.744Z,2.80
2017-07-17T16:41:50.053Z,2.90
2017-07-17T16:44:18.358Z,2.70
2017-07-17T16:46:46.796Z,3.40
2017-07-17T16:49:15.073Z,2.60
2017-07-17T16:51:43.351Z,2.77
2017-07-17T16:54:11.626Z,2.77
2017-07-17T16:56:39.858Z,2.60
2017-07-17T16:59:08.222Z,2.83
2017-07-17T17:01:36.508Z,2.73
2017-07-17T17:04:04.749Z,3.20
2017-07-17T17:06:33.034Z,2.30
2017-07-17T17:09:01.690Z,2.50
2017-07-17T17:11:29.921Z,2.50
2017-07-17T17:13:58.244Z,3.23
2017-07-17T17:16:26.482Z,3.23
2017-07-17T17:18:54.913Z,2.63
2017-07-17T17:21:23.166Z,2.97
2017-07-17T17:23:51.406Z,3.07
2017-07-17T17:26:19.669Z,2.80
2017-07-17T17:28:47.961Z,2.83
2017-07-17T17:31:16.222Z,3.07
2017-07-17T17:33:44.972Z,2.90
2017-07-17T17:36:13.288Z,2.80
2017-07-17T17:38:41.549Z,2.80
2017-07-17T17:41:09.843Z,3.30
2017-07-17T17:43:38.163Z,3.60
2017-07-17T17:46:06.657Z,3.30
2017-07-17T17:48:34.922Z,3.20
2017-07-17T17:51:03.208Z,3.20
2017-07-17T17:53:31.499Z,3.10
2017-07-17T17:55:59.731Z,3.23
2017-07-17T17:58:28.014Z,3.27
2017-07-17T18:00:56.269Z,3.60
2017-07-17T18:03:26.050Z,3.60
2017-07-17T18:05:54.730Z,3.10
2017-07-17T18:08:23.389Z,3.07
2017-07-17T18:10:51.867Z,3.30
2017-07-17T18:13:20.605Z,4.00
2017-07-17T18:15:48.916Z,7.77
2017-07-17T18:18:17.218Z,3.70
2017-07-17T18:20:45.503Z,4.63
2017-07-17T18:23:13.739Z,3.30
2017-07-17T18:25:42.545Z,3.20
2017-07-17T18:28:11.801Z,3.30
2017-07-17T18:30:40.420Z,3.40
2017-07-17T18:33:08.712Z,3.70
2017-07-17T18:35:38.213Z,3.10
2017-07-17T18:38:06.700Z,3.60
2017-07-17T18:40:35.071Z,3.50
2017-07-17T18:43:03.366Z,3.50
2017-07-17T18:45:31.656Z,3.63
2017-07-17T18:48:00.281Z,4.80
2017-07-17T18:50:28.567Z,4.57
2017-07-17T18:52:56.821Z,3.67
2017-07-17T18:55:25.183Z,4.10
2017-07-17T18:57:53.451Z,4.60
2017-07-17T19:00:21.688Z,3.47
2017-07-17T19:02:50.842Z,3.53
2017-07-17T19:05:19.252Z,3.90
2017-07-17T19:07:47.483Z,3.60
2017-07-17T19:10:16.109Z,4.03
2017-07-17T19:12:44.395Z,3.93
2017-07-17T19:15:12.637Z,3.50
2017-07-17T19:17:41.100Z,3.93
2017-07-17T19:20:09.419Z,4.43
2017-07-17T19:22:37.672Z,4.53
2017-07-17T19:25:05.967Z,3.90
2017-07-17T19:27:34.355Z,4.30
2017-07-17T19:30:02.868Z,4.17
2017-07-17T19:32:31.140Z,4.20
2017-07-17T19:34:59.581Z,3.93
2017-07-17T19:37:27.839Z,4.77
2017-07-17T19:39:56.100Z,5.13
2017-07-17T19:42:24.457Z,6.60
2017-07-17T19:44:52.692Z,6.20
2017-07-17T19:47:20.939Z,8.57
2017-07-17T19:49:49.307Z,5.33
2017-07-17T19:52:17.764Z,7.23
2017-07-17T19:54:46.018Z,6.40
2017-07-17T19:57:14.293Z,5.77
2017-07-17T19:59:42.567Z,4.80
2017-07-17T20:02:10.823Z,5.30
2017-07-17T20:04:39.704Z,4.30
2017-07-17T20:07:07.953Z,4.27
2017-07-17T20:09:36.597Z,3.27
2017-07-17T20:12:04.915Z,3.30
2017-07-17T20:14:33.187Z,3.50
2017-07-17T20:17:01.534Z,4.20
2017-07-17T20:19:30.113Z,4.10
2017-07-17T20:21:58.962Z,4.07
2017-07-17T20:24:27.233Z,3.80
2017-07-17T20:26:55.632Z,3.93
2017-07-17T20:29:23.915Z,3.50
2017-07-17T20:31:52.307Z,4.00
2017-07-17T20:34:20.561Z,4.87
2017-07-17T20:36:48.878Z,3.90
2017-07-17T20:39:17.632Z,5.17
2017-07-17T20:41:46.057Z,5.13
2017-07-17T20:44:14.449Z,8.27
2017-07-17T20:46:43.075Z,9.13
2017-07-17T20:49:25.794Z,6.27
2017-07-17T20:51:54.284Z,6.47
2017-07-17T20:54:22.741Z,6.50
2017-07-17T20:56:51.055Z,6.17
2017-07-17T20:59:19.304Z,6.43
2017-07-17T21:01:47.545Z,5.80
2017-07-17T21:04:15.853Z,5.23
2017-07-17T21:06:44.083Z,5.53
2017-07-17T21:09:12.633Z,6.07
2017-07-17T21:11:41.456Z,6.20
2017-07-17T21:14:09.908Z,6.40
2017-07-17T21:16:38.256Z,6.00
2017-07-17T21:19:06.637Z,5.87
2017-07-17T21:21:35.160Z,6.20
2017-07-17T21:24:03.788Z,6.03
2017-07-17T21:26:32.057Z,7.00
2017-07-17T21:29:00.408Z,5.80
2017-07-17T21:31:28.748Z,6.50
2017-07-17T21:33:57.001Z,12.13
2017-07-17T21:36:25.287Z,6.00
2017-07-17T21:38:53.520Z,5.90
2017-07-17T21:41:22.176Z,6.60
2017-07-17T21:43:50.445Z,5.97
2017-07-17T21:46:18.687Z,6.57
2017-07-17T21:48:47.160Z,6.00
2017-07-17T21:51:15.425Z,6.60
2017-07-17T21:53:43.791Z,6.20
2017-07-17T21:56:12.458Z,6.33
2017-07-17T21:58:40.746Z,6.53
2017-07-17T22:01:09.373Z,6.60
2017-07-17T22:03:38.364Z,6.43
2017-07-17T22:06:06.767Z,6.03
2017-07-17T22:08:34.988Z,6.40
2017-07-17T22:11:03.257Z,6.80
2017-07-17T22:13:31.496Z,6.50
2017-07-17T22:15:59.775Z,6.70
2017-07-17T22:18:28.079Z,7.40
2017-07-17T22:20:56.727Z,7.00
2017-07-17T22:23:24.976Z,6.53
2017-07-17T22:25:53.272Z,6.47
2017-07-17T22:28:21.528Z,6.47
2017-07-17T22:30:49.772Z,6.53
2017-07-17T22:33:18.034Z,6.10
2017-07-17T22:35:46.297Z,6.10
2017-07-17T22:38:14.536Z,5.63
2017-07-17T22:40:42.821Z,6.30
2017-07-17T22:43:11.072Z,6.20
2017-07-17T22:45:39.335Z,6.43
2017-07-17T22:48:07.628Z,6.23
2017-07-17T22:50:35.919Z,7.03
2017-07-17T22:53:04.165Z,6.00
2017-07-17T22:55:32.428Z,6.80
2017-07-17T22:58:01.157Z,6.97
2017-07-17T23:00:29.377Z,6.73
2017-07-17T23:02:57.636Z,6.67
2017-07-17T23:05:25.888Z,6.07
2017-07-17T23:07:54.156Z,6.33
2017-07-17T23:10:22.466Z,7.00
2017-07-17T23:12:50.755Z,5.40
2017-07-17T23:15:19.012Z,6.90
2017-07-17T23:17:47.384Z,6.20
2017-07-17T23:20:15.610Z,6.60
2017-07-17T23:22:43.869Z,6.40
2017-07-17T23:25:12.149Z,7.03
2017-07-17T23:27:40.785Z,7.20
2017-07-17T23:30:09.051Z,7.40
2017-07-17T23:32:37.347Z,6.77
2017-07-17T23:35:05.576Z,6.63
2017-07-17T23:37:33.812Z,6.70
2017-07-17T23:40:02.117Z,7.23
2017-07-17T23:42:30.362Z,7.03
2017-07-17T23:44:58.818Z,6.37
2017-07-17T23:47:27.096Z,7.20
2017-07-17T23:49:55.371Z,6.40
2017-07-17T23:52:23.621Z,7.47
2017-07-17T23:54:51.907Z,6.03
2017-07-17T23:57:20.150Z,5.93
2017-07-17T23:59:48.799Z,6.60
